createdAt,value
2018-09-20T00:01:15.027Z,99283.27
2018-09-20T00:03:45.887Z,99296.89
2018-09-20T00:06:15.208Z,99285.95
2018-09-20T00:08:43.738Z,99296.85
2018-09-20T00:11:12.257Z,99287.98
2018-09-20T00:13:41.941Z,99278.20
2018-09-20T00:16:10.422Z,99283.10
2018-09-20T00:18:38.956Z,99275.55
2018-09-20T00:21:08.917Z,99276.80
2018-09-20T00:23:37.904Z,99277.39
2018-09-20T00:26:06.959Z,99276.83
2018-09-20T00:28:36.623Z,99275.27
2018-09-20T00:31:05.322Z,99273.95
2018-09-20T00:33:34.393Z,99269.25
2018-09-20T00:36:03.737Z,99269.22
2018-09-20T00:38:32.954Z,99271.98
2018-09-20T00:41:02.578Z,99271.20
2018-09-20T00:43:31.229Z,99274.59
2018-09-20T00:46:00.238Z,99275.41
2018-09-20T00:48:29.875Z,99271.68
2018-09-20T00:50:58.361Z,99272.61
2018-09-20T00:53:27.916Z,99275.54
2018-09-20T00:55:56.397Z,99273.73
2018-09-20T00:58:27.838Z,99272.86
2018-09-20T01:00:56.348Z,99264.48
2018-09-20T01:03:25.025Z,99264.51
2018-09-20T01:05:53.819Z,99262.94
2018-09-20T01:08:23.222Z,99264.31
2018-09-20T01:10:52.220Z,99261.18
2018-09-20T01:13:20.929Z,99261.73
2018-09-20T01:15:49.891Z,99264.23
2018-09-20T01:18:19.133Z,99264.69
2018-09-20T01:20:47.629Z,99265.06
2018-09-20T01:23:16.861Z,99266.22
2018-09-20T01:25:45.593Z,99277.14
2018-09-20T01:28:14.054Z,99272.19
2018-09-20T01:30:44.106Z,99269.33
2018-09-20T01:33:13.182Z,99269.05
2018-09-20T01:35:42.096Z,99275.95
2018-09-20T01:38:13.772Z,99276.56
2018-09-20T01:40:42.329Z,99275.50
2018-09-20T01:43:12.625Z,99274.81
2018-09-20T01:45:42.028Z,99271.98
2018-09-20T01:48:11.162Z,99274.94
2018-09-20T01:50:39.996Z,99270.97
2018-09-20T01:53:09.356Z,99279.67
2018-09-20T01:55:38.970Z,99279.55
2018-09-20T01:58:07.887Z,99273.62
2018-09-20T02:00:38.717Z,99274.11
2018-09-20T02:03:08.749Z,99271.14
2018-09-20T02:05:38.107Z,99267.05
2018-09-20T02:08:07.073Z,99259.16
2018-09-20T02:10:36.570Z,99260.75
2018-09-20T02:13:05.607Z,99265.58
2018-09-20T02:15:34.136Z,99265.38
2018-09-20T02:18:03.556Z,99273.67
2018-09-20T02:20:34.150Z,99268.36
2018-09-20T02:23:02.620Z,99273.25
2018-09-20T02:25:31.099Z,99276.43
2018-09-20T02:28:00.431Z,99280.77
2018-09-20T02:30:29.358Z,99284.02
2018-09-20T02:32:58.026Z,99283.17
2018-09-20T02:35:26.458Z,99278.52
2018-09-20T02:37:54.914Z,99291.93
2018-09-20T02:40:23.592Z,99292.08
2018-09-20T02:42:52.688Z,99287.45
2018-09-20T02:45:21.351Z,99289.63
2018-09-20T02:47:51.504Z,99285.23
2018-09-20T02:50:21.317Z,99279.62
2018-09-20T02:52:50.181Z,99282.30
2018-09-20T02:55:19.050Z,99281.22
2018-09-20T02:57:48.081Z,99280.37
2018-09-20T03:00:17.614Z,99275.25
2018-09-20T03:02:46.362Z,99280.30
2018-09-20T03:05:14.857Z,99277.08
2018-09-20T03:07:43.316Z,99275.25
2018-09-20T03:10:11.797Z,99272.62
2018-09-20T03:12:41.985Z,99271.41
2018-09-20T03:15:10.842Z,99279.59
2018-09-20T03:17:40.165Z,99282.10
2018-09-20T03:20:09.458Z,99292.47
2018-09-20T03:22:39.805Z,99282.04
2018-09-20T03:25:08.910Z,99287.13
2018-09-20T03:27:38.037Z,99288.73
2018-09-20T03:30:07.759Z,99290.47
2018-09-20T03:32:36.845Z,99291.95
2018-09-20T03:35:07.570Z,99293.00
2018-09-20T03:37:36.907Z,99288.00
2018-09-20T03:40:05.424Z,99288.52
2018-09-20T03:42:35.732Z,99286.75
2018-09-20T03:45:05.086Z,99280.45
2018-09-20T03:47:33.584Z,99283.77
2018-09-20T03:50:02.173Z,99279.80
2018-09-20T03:52:31.347Z,99286.00
2018-09-20T03:55:00.238Z,99277.94
2018-09-20T03:57:28.715Z,99291.05
2018-09-20T03:59:57.201Z,99291.59
2018-09-20T04:02:25.970Z,99292.59
2018-09-20T04:04:55.717Z,99290.52
2018-09-20T04:07:24.985Z,99284.74
2018-09-20T04:09:54.206Z,99283.05
2018-09-20T04:12:24.423Z,99274.59
2018-09-20T04:14:53.128Z,99276.81
2018-09-20T04:17:22.719Z,99279.95
2018-09-20T04:19:51.541Z,99274.46
2018-09-20T04:22:20.037Z,99277.63
2018-09-20T04:24:49.390Z,99288.39
2018-09-20T04:27:18.708Z,99278.80
2018-09-20T04:29:48.369Z,99285.62
2018-09-20T04:32:16.808Z,99284.49
2018-09-20T04:34:45.509Z,99282.80
2018-09-20T04:37:14.249Z,99290.97
2018-09-20T04:39:42.780Z,99286.31
2018-09-20T04:42:11.715Z,99284.49
2018-09-20T04:44:41.399Z,99282.13
2018-09-20T04:47:10.539Z,99282.45
2018-09-20T04:49:38.993Z,99284.14
2018-09-20T04:52:09.110Z,99290.02
2018-09-20T04:54:38.279Z,99289.16
2018-09-20T04:57:08.456Z,99287.13
2018-09-20T04:59:38.309Z,99293.61
2018-09-20T05:02:07.685Z,99292.25
2018-09-20T05:04:36.557Z,99300.78
2018-09-20T05:07:05.429Z,99297.75
2018-09-20T05:09:33.921Z,99295.56
2018-09-20T05:12:04.078Z,99296.66
2018-09-20T05:14:32.781Z,99291.89
2018-09-20T05:17:03.877Z,99289.08
2018-09-20T05:19:32.667Z,99285.97
2018-09-20T05:22:02.997Z,99289.30
2018-09-20T05:24:32.473Z,99286.87
2018-09-20T05:27:02.183Z,99294.53
2018-09-20T05:29:31.691Z,99298.06
2018-09-20T05:32:01.239Z,99302.01
2018-09-20T05:34:29.708Z,99300.05
2018-09-20T05:36:58.432Z,99294.72
2018-09-20T05:39:28.113Z,99301.83
2018-09-20T05:41:56.580Z,99298.04
2018-09-20T05:44:25.321Z,99298.42
2018-09-20T05:46:54.321Z,99300.97
2018-09-20T05:49:22.757Z,99302.45
2018-09-20T05:51:53.886Z,99301.52
2018-09-20T05:54:22.333Z,99302.61
2018-09-20T05:56:51.644Z,99310.47
2018-09-20T05:59:20.669Z,99302.30
2018-09-20T06:01:49.161Z,99308.09
2018-09-20T06:04:18.473Z,99315.41
2018-09-20T06:06:47.423Z,99315.13
2018-09-20T06:09:16.105Z,99321.56
2018-09-20T06:11:45.452Z,99317.69
2018-09-20T06:14:13.942Z,99315.13
2018-09-20T06:16:43.133Z,99312.87
2018-09-20T06:19:12.594Z,99314.63
2018-09-20T06:21:42.507Z,99315.27
2018-09-20T06:24:10.980Z,99319.35
2018-09-20T06:26:40.745Z,99316.58
2018-09-20T06:29:09.908Z,99321.84
2018-09-20T06:31:38.403Z,99321.59
2018-09-20T06:34:08.457Z,99326.52
2018-09-20T06:36:39.683Z,99328.77
2018-09-20T06:39:12.346Z,99327.91
2018-09-20T06:41:41.653Z,99330.50
2018-09-20T06:44:10.539Z,99327.76
2018-09-20T06:46:39.126Z,99331.22
2018-09-20T06:49:08.802Z,99338.05
2018-09-20T06:51:38.341Z,99335.36
2018-09-20T06:54:07.306Z,99334.13
2018-09-20T06:56:36.540Z,99338.45
2018-09-20T06:59:05.212Z,99339.17
2018-09-20T07:01:34.240Z,99343.81
2018-09-20T07:04:03.513Z,99345.31
2018-09-20T07:06:33.041Z,99336.99
2018-09-20T07:09:01.592Z,99336.05
2018-09-20T07:11:31.945Z,99335.12
2018-09-20T07:14:01.689Z,99337.77
2018-09-20T07:16:32.337Z,99327.69
2018-09-20T07:19:01.121Z,99331.24
2018-09-20T07:21:31.530Z,99329.09
2018-09-20T07:23:59.982Z,99331.36
2018-09-20T07:26:30.804Z,99336.02
2018-09-20T07:29:00.532Z,99325.48
2018-09-20T07:31:30.329Z,99326.24
2018-09-20T07:33:59.488Z,99333.30
2018-09-20T07:36:28.509Z,99326.62
2018-09-20T07:38:56.986Z,99327.72
2018-09-20T07:41:26.370Z,99328.84
2018-09-20T07:43:55.833Z,99327.85
2018-09-20T07:46:24.585Z,99324.47
2018-09-20T07:48:53.429Z,99324.95
2018-09-20T07:51:22.986Z,99326.20
2018-09-20T07:53:53.623Z,99330.98
2018-09-20T07:56:22.086Z,99332.61
2018-09-20T07:58:51.761Z,99327.87
2018-09-20T08:01:20.747Z,99328.66
2018-09-20T08:03:51.080Z,99333.61
2018-09-20T08:06:20.706Z,99330.66
2018-09-20T08:08:50.638Z,99333.30
2018-09-20T08:11:19.493Z,99335.82
2018-09-20T08:13:48.010Z,99342.42
2018-09-20T08:16:17.308Z,99347.32
2018-09-20T08:18:46.837Z,99341.34
2018-09-20T08:21:15.284Z,99342.20
2018-09-20T08:23:44.734Z,99340.30
2018-09-20T08:26:13.541Z,99337.74
2018-09-20T08:28:42.913Z,99340.81
2018-09-20T08:31:12.626Z,99339.23
2018-09-20T08:33:41.148Z,99347.48
2018-09-20T08:36:10.388Z,99343.73
2018-09-20T08:38:38.868Z,99348.33
2018-09-20T08:41:07.505Z,99349.04
2018-09-20T08:43:37.184Z,99350.17
2018-09-20T08:46:05.905Z,99346.48
2018-09-20T08:48:35.737Z,99345.14
2018-09-20T08:51:05.931Z,99346.20
2018-09-20T08:53:35.398Z,99344.27
2018-09-20T08:56:03.878Z,99336.80
2018-09-20T08:58:33.027Z,99339.56
2018-09-20T09:01:04.341Z,99329.44
2018-09-20T09:03:33.613Z,99337.00
2018-09-20T09:06:02.352Z,99329.53
2018-09-20T09:08:31.395Z,99323.31
2018-09-20T09:11:00.881Z,99324.47
2018-09-20T09:13:30.878Z,99322.38
2018-09-20T09:15:59.598Z,99329.08
2018-09-20T09:18:28.259Z,99326.14
2018-09-20T09:20:57.081Z,99324.70
2018-09-20T09:23:25.609Z,99318.53
2018-09-20T09:25:55.007Z,99307.31
2018-09-20T09:28:23.834Z,99306.77
2018-09-20T09:30:52.293Z,99319.70
2018-09-20T09:33:22.306Z,99305.40
2018-09-20T09:35:51.966Z,99299.10
2018-09-20T09:38:21.138Z,99299.70
2018-09-20T09:40:49.611Z,99304.72
2018-09-20T09:43:18.492Z,99309.68
2018-09-20T09:45:47.022Z,99305.14
2018-09-20T09:48:16.379Z,99305.30
2018-09-20T09:50:45.824Z,99301.66
2018-09-20T09:53:14.333Z,99291.47
2018-09-20T09:55:44.137Z,99288.59
2018-09-20T09:58:16.377Z,99290.84
2018-09-20T10:00:44.864Z,99294.24
2018-09-20T10:03:16.341Z,99289.30
2018-09-20T10:05:45.157Z,99279.25
2018-09-20T10:08:16.110Z,99275.00
2018-09-20T10:10:45.542Z,99270.28
2018-09-20T10:13:14.029Z,99266.76
2018-09-20T10:15:43.190Z,99279.14
2018-09-20T10:18:12.639Z,99262.67
2018-09-20T10:20:41.383Z,99262.56
2018-09-20T10:23:11.326Z,99260.09
2018-09-20T10:25:39.824Z,99261.97
2018-09-20T10:28:08.706Z,99262.89
2018-09-20T10:30:37.158Z,99252.44
2018-09-20T10:33:07.179Z,99246.20
2018-09-20T10:35:36.847Z,99247.55
2018-09-20T10:38:06.221Z,99246.39
2018-09-20T10:40:36.598Z,99249.92
2018-09-20T10:43:06.232Z,99246.55
2018-09-20T10:45:36.149Z,99237.80
2018-09-20T10:48:05.460Z,99241.05
2018-09-20T10:50:35.577Z,99230.84
2018-09-20T10:53:04.300Z,99232.56
2018-09-20T10:55:38.681Z,99222.91
2018-09-20T10:58:07.249Z,99229.84
2018-09-20T11:00:35.759Z,99219.17
2018-09-20T11:03:04.343Z,99216.47
2018-09-20T11:05:33.634Z,99208.06
2018-09-20T11:08:02.362Z,99203.70
2018-09-20T11:10:32.015Z,99190.48
2018-09-20T11:13:01.412Z,99191.13
2018-09-20T11:15:30.257Z,99194.22
2018-09-20T11:17:59.113Z,99187.37
2018-09-20T11:20:29.129Z,99185.92
2018-09-20T11:22:57.614Z,99185.19
2018-09-20T11:25:27.122Z,99185.55
2018-09-20T11:27:55.611Z,99183.37
2018-09-20T11:30:24.313Z,99183.99
2018-09-20T11:32:53.168Z,99176.22
2018-09-20T11:35:22.706Z,99177.48
2018-09-20T11:37:51.456Z,99176.95
2018-09-20T11:40:20.604Z,99178.64
2018-09-20T11:42:49.118Z,99168.58
2018-09-20T11:45:17.918Z,99163.42
2018-09-20T11:47:46.377Z,99167.70
2018-09-20T11:50:16.814Z,99166.00
2018-09-20T11:52:45.394Z,99160.09
2018-09-20T11:55:15.148Z,99156.81
2018-09-20T11:57:45.659Z,99154.63
2018-09-20T12:00:15.354Z,99154.84
2018-09-20T12:02:43.844Z,99152.16
2018-09-20T12:05:12.616Z,99144.34
2018-09-20T12:07:41.879Z,99144.50
2018-09-20T12:10:11.297Z,99148.37
2018-09-20T12:12:40.191Z,99134.30
2018-09-20T12:15:09.293Z,99128.66
2018-09-20T12:17:42.194Z,99125.49
2018-09-20T12:20:11.896Z,99118.38
2018-09-20T12:22:40.385Z,99125.92
2018-09-20T12:25:08.870Z,99123.47
2018-09-20T12:27:37.357Z,99120.80
2018-09-20T12:30:06.786Z,99121.98
2018-09-20T12:32:35.798Z,99114.30
2018-09-20T12:35:05.190Z,99105.55
2018-09-20T12:37:39.161Z,99092.61
2018-09-20T12:40:09.444Z,99099.20
2018-09-20T12:42:38.670Z,99089.89
2018-09-20T12:45:08.072Z,99095.67
2018-09-20T12:47:37.765Z,99087.03
2018-09-20T12:50:06.719Z,99089.52
2018-09-20T12:52:35.307Z,99078.28
2018-09-20T12:55:04.021Z,99087.59
2018-09-20T12:57:32.519Z,99081.16
2018-09-20T13:00:00.987Z,99085.31
2018-09-20T13:02:30.192Z,99073.88
2018-09-20T13:04:58.880Z,99066.62
2018-09-20T13:07:28.349Z,99060.84
2018-09-20T13:09:56.805Z,99062.28
2018-09-20T13:12:29.485Z,99061.89
2018-09-20T13:14:58.226Z,99056.25
2018-09-20T13:17:27.013Z,99052.95
2018-09-20T13:19:56.509Z,99058.53
2018-09-20T13:22:25.014Z,99060.86
2018-09-20T13:24:53.754Z,99050.97
2018-09-20T13:27:22.221Z,99054.38
2018-09-20T13:29:50.750Z,99061.18
2018-09-20T13:32:19.488Z,99056.94
2018-09-20T13:34:48.829Z,99048.44
2018-09-20T13:37:17.717Z,99051.56
2018-09-20T13:39:47.390Z,99061.50
2018-09-20T13:42:16.423Z,99045.16
2018-09-20T13:44:44.942Z,99039.84
2018-09-20T13:47:14.333Z,99043.83
2018-09-20T13:49:42.888Z,99036.02
2018-09-20T13:52:13.115Z,99041.98
2018-09-20T13:54:41.680Z,99029.66
2018-09-20T13:57:12.266Z,99023.12
2018-09-20T13:59:41.484Z,99020.16
2018-09-20T14:02:11.625Z,99019.72
2018-09-20T14:04:40.565Z,99023.80
2018-09-20T14:07:09.435Z,99017.15
2018-09-20T14:09:37.957Z,99023.58
2018-09-20T14:12:06.459Z,99018.27
2018-09-20T14:14:35.991Z,99019.09
2018-09-20T14:17:04.826Z,99011.53
2018-09-20T14:19:34.732Z,99013.41
2018-09-20T14:22:03.511Z,99011.87
2018-09-20T14:24:32.152Z,99006.11
2018-09-20T14:27:00.678Z,99003.53
2018-09-20T14:29:30.529Z,99000.14
2018-09-20T14:31:59.177Z,98994.77
2018-09-20T14:34:28.373Z,98985.77
2018-09-20T14:36:57.281Z,98988.09
2018-09-20T14:39:26.042Z,98993.02
2018-09-20T14:41:56.498Z,98988.34
2018-09-20T14:45:09.153Z,98976.73
2018-09-20T14:47:37.677Z,98976.61
2018-09-20T14:50:07.902Z,98968.52
2018-09-20T14:52:36.725Z,98970.52
2018-09-20T14:55:06.689Z,98967.55
2018-09-20T14:57:35.989Z,98972.51
2018-09-20T15:00:05.521Z,98970.52
2018-09-20T15:02:35.257Z,98973.98
2018-09-20T15:05:05.592Z,98963.80
2018-09-20T15:07:34.365Z,98958.67
2018-09-20T15:10:03.257Z,98948.55
2018-09-20T15:12:32.081Z,98957.64
2018-09-20T15:15:01.747Z,98956.63
2018-09-20T15:17:30.269Z,98950.00
2018-09-20T15:19:59.749Z,98950.02
2018-09-20T15:22:28.727Z,98939.21
2018-09-20T15:24:58.146Z,98942.81
2018-09-20T15:27:28.293Z,98952.05
2018-09-20T15:29:57.130Z,98940.26
2018-09-20T15:32:26.512Z,98938.59
2018-09-20T15:34:55.819Z,98937.73
2018-09-20T15:37:24.901Z,98943.77
2018-09-20T15:39:54.123Z,98937.78
2018-09-20T15:42:23.126Z,98933.63
2018-09-20T15:44:53.090Z,98934.77
2018-09-20T15:47:21.899Z,98927.41
2018-09-20T15:49:54.009Z,98925.05
2018-09-20T15:52:24.420Z,98928.16
2018-09-20T15:54:53.889Z,98928.78
2018-09-20T15:57:24.221Z,98930.77
2018-09-20T15:59:53.623Z,98925.09
2018-09-20T16:02:22.507Z,98916.27
2018-09-20T16:04:51.606Z,98913.16
2018-09-20T16:07:21.045Z,98917.69
2018-09-20T16:09:50.065Z,98911.02
2018-09-20T16:12:19.386Z,98911.73
2018-09-20T16:14:49.012Z,98903.52
2018-09-20T16:17:18.333Z,98902.45
2018-09-20T16:19:49.984Z,98894.11
2018-09-20T16:22:21.997Z,98897.61
2018-09-20T16:24:52.222Z,98890.30
2018-09-20T16:27:21.556Z,98881.16
2018-09-20T16:30:32.375Z,98876.49
2018-09-20T16:33:17.398Z,98882.88
2018-09-20T16:35:53.821Z,98871.40
2018-09-20T16:38:32.053Z,98870.72
2018-09-20T16:41:02.834Z,98867.70
2018-09-20T16:43:32.475Z,98860.95
2018-09-20T16:46:02.558Z,98850.30
2018-09-20T16:48:31.941Z,98851.53
2018-09-20T16:51:01.792Z,98855.00
2018-09-20T16:53:31.224Z,98846.67
2018-09-20T16:56:01.189Z,98848.23
2018-09-20T16:58:30.541Z,98843.62
2018-09-20T17:01:00.876Z,98857.03
2018-09-20T17:03:29.316Z,98841.95
2018-09-20T17:05:58.471Z,98855.48
2018-09-20T17:08:27.750Z,98848.81
2018-09-20T17:10:56.703Z,98854.73
2018-09-20T17:13:26.409Z,98847.92
2018-09-20T17:15:55.441Z,98848.19
2018-09-20T17:18:23.907Z,98840.77
2018-09-20T17:20:52.702Z,98848.81
2018-09-20T17:23:24.969Z,98846.22
2018-09-20T17:25:54.492Z,98853.41
2018-09-20T17:28:23.592Z,98851.44
2018-09-20T17:30:53.044Z,98853.41
2018-09-20T17:33:23.664Z,98843.69
2018-09-20T17:35:52.808Z,98847.86
2018-09-20T17:38:23.027Z,98837.38
2018-09-20T17:40:55.562Z,98845.73
2018-09-20T17:43:29.556Z,98848.85
2018-09-20T17:45:58.480Z,98846.34
2018-09-20T17:48:27.174Z,98842.02
2018-09-20T17:50:56.328Z,98847.97
2018-09-20T17:53:25.840Z,98856.81
2018-09-20T17:55:55.115Z,98846.97
2018-09-20T17:58:25.561Z,98851.25
2018-09-20T18:00:54.969Z,98854.62
2018-09-20T18:03:24.049Z,98852.30
2018-09-20T18:05:52.981Z,98856.78
2018-09-20T18:08:21.808Z,98849.27
2018-09-20T18:10:50.906Z,98849.06
2018-09-20T18:13:19.940Z,98849.23
2018-09-20T18:15:49.185Z,98852.67
2018-09-20T18:18:18.030Z,98850.64
2018-09-20T18:23:15.537Z,98845.11
2018-09-20T18:25:44.501Z,98849.06
2018-09-20T18:28:13.158Z,98847.92
2018-09-20T18:30:41.822Z,98842.28
2018-09-20T18:33:11.156Z,98840.93
2018-09-20T18:35:40.147Z,98839.48
2018-09-20T18:38:08.941Z,98837.09
2018-09-20T18:40:38.544Z,98838.54
2018-09-20T18:43:07.423Z,98832.19
2018-09-20T18:45:36.691Z,98832.48
2018-09-20T18:48:06.196Z,98839.32
2018-09-20T18:50:35.706Z,98837.36
2018-09-20T18:53:04.429Z,98829.89
2018-09-20T18:55:34.352Z,98828.30
2018-09-20T18:58:02.761Z,98824.41
2018-09-20T19:00:32.609Z,98827.44
2018-09-20T19:03:01.505Z,98822.29
2018-09-20T19:05:30.633Z,98824.44
2018-09-20T19:08:00.154Z,98829.55
2018-09-20T19:10:29.082Z,98825.31
2018-09-20T19:12:58.912Z,98815.53
2018-09-20T19:15:28.111Z,98815.02
2018-09-20T19:17:56.792Z,98821.53
2018-09-20T19:20:25.533Z,98813.92
2018-09-20T19:22:54.373Z,98810.89
2018-09-20T19:25:23.437Z,98812.15
2018-09-20T19:27:53.026Z,98803.09
2018-09-20T19:30:22.189Z,98806.96
2018-09-20T19:32:51.696Z,98804.58
2018-09-20T19:35:20.405Z,98794.59
2018-09-20T19:37:49.305Z,98800.59
2018-09-20T19:40:18.314Z,98803.82
2018-09-20T19:42:47.199Z,98801.56
2018-09-20T19:45:16.865Z,98801.56
2018-09-20T19:47:45.770Z,98794.07
2018-09-20T19:50:15.656Z,98794.71
2018-09-20T19:52:44.127Z,98789.25
2018-09-20T19:55:14.550Z,98797.09
2018-09-20T19:57:43.856Z,98789.41
2018-09-20T20:00:14.128Z,98792.45
2018-09-20T20:02:43.607Z,98792.45
2018-09-20T20:05:13.468Z,98784.19
2018-09-20T20:07:43.388Z,98783.88
2018-09-20T20:10:11.844Z,98788.25
2018-09-20T20:12:40.844Z,98786.20
2018-09-20T20:15:09.352Z,98785.62
2018-09-20T20:17:41.720Z,98786.00
2018-09-20T20:20:10.846Z,98778.38
2018-09-20T20:22:39.804Z,98780.91
2018-09-20T20:25:10.294Z,98787.76
2018-09-20T20:27:40.045Z,98780.89
2018-09-20T20:30:09.860Z,98782.00
2018-09-20T20:32:39.011Z,98780.70
2018-09-20T20:35:08.137Z,98775.11
2018-09-20T20:37:36.966Z,98770.61
2018-09-20T20:40:06.417Z,98768.19
2018-09-20T20:42:35.262Z,98763.30
2018-09-20T20:45:04.578Z,98761.42
2018-09-20T20:47:34.302Z,98758.66
2018-09-20T20:50:03.815Z,98753.33
2018-09-20T20:52:33.573Z,98760.51
2018-09-20T20:55:02.452Z,98766.83
2018-09-20T20:57:31.828Z,98763.53
2018-09-20T21:00:01.528Z,98759.88
2018-09-20T21:02:30.353Z,98762.69
2018-09-20T21:04:59.591Z,98755.24
2018-09-20T21:07:28.282Z,98751.89
2018-09-20T21:09:57.388Z,98750.67
2018-09-20T21:12:25.901Z,98749.59
2018-09-20T21:14:55.321Z,98748.41
2018-09-20T21:17:24.730Z,98747.03
2018-09-20T21:19:53.833Z,98741.96
2018-09-20T21:22:23.188Z,98738.10
2018-09-20T21:24:52.201Z,98740.80
2018-09-20T21:27:20.691Z,98739.18
2018-09-20T21:29:49.504Z,98738.66
2018-09-20T21:32:18.613Z,98726.88
2018-09-20T21:34:48.094Z,98722.38
2018-09-20T21:37:17.246Z,98719.63
2018-09-20T21:39:46.094Z,98721.21
2018-09-20T21:42:14.633Z,98718.35
2018-09-20T21:44:43.504Z,98715.66
2018-09-20T21:47:12.013Z,98709.42
2018-09-20T21:49:41.768Z,98709.89
2018-09-20T21:52:10.572Z,98700.30
2018-09-20T21:54:40.479Z,98697.23
2018-09-20T21:57:09.749Z,98698.16
2018-09-20T21:59:39.255Z,98694.56
2018-09-20T22:02:07.793Z,98688.53
2018-09-20T22:04:36.948Z,98688.98
2018-09-20T22:07:07.153Z,98691.23
2018-09-20T22:09:36.457Z,98697.64
2018-09-20T22:12:06.098Z,98696.22
2018-09-20T22:14:35.489Z,98689.05
2018-09-20T22:17:04.570Z,98682.22
2018-09-20T22:19:34.191Z,98678.00
2018-09-20T22:22:03.085Z,98681.57
2018-09-20T22:24:32.025Z,98680.47
2018-09-20T22:27:01.239Z,98673.69
2018-09-20T22:29:30.657Z,98676.19
2018-09-20T22:31:59.665Z,98675.22
2018-09-20T22:34:28.149Z,98670.27
2018-09-20T22:36:58.025Z,98661.53
2018-09-20T22:39:27.599Z,98665.89
2018-09-20T22:41:57.299Z,98659.86
2018-09-20T22:44:26.204Z,98660.78
2018-09-20T22:46:55.658Z,98649.25
2018-09-20T22:49:25.411Z,98645.54
2018-09-20T22:51:54.592Z,98644.78
2018-09-20T22:54:23.172Z,98647.71
2018-09-20T22:56:52.581Z,98639.97
2018-09-20T22:59:23.027Z,98636.91
2018-09-20T23:01:53.085Z,98636.80
2018-09-20T23:04:21.849Z,98632.28
2018-09-20T23:06:50.963Z,98629.56
2018-09-20T23:09:19.696Z,98630.88
2018-09-20T23:11:48.405Z,98630.91
2018-09-20T23:14:17.108Z,98630.07
2018-09-20T23:16:45.912Z,98631.09
2018-09-20T23:19:15.213Z,98627.91
2018-09-20T23:21:44.026Z,98629.77
2018-09-20T23:24:13.818Z,98623.73
2018-09-20T23:26:42.732Z,98628.95
2018-09-20T23:29:11.965Z,98623.59
2018-09-20T23:31:41.485Z,98621.41
2018-09-20T23:34:10.936Z,98618.67
2018-09-20T23:36:39.741Z,98623.04
2018-09-20T23:39:10.152Z,98618.34
2018-09-20T23:41:40.041Z,98616.82
2018-09-20T23:44:09.604Z,98623.22
2018-09-20T23:46:39.415Z,98608.94
2018-09-20T23:49:09.113Z,98614.31
2018-09-20T23:51:39.013Z,98608.47
2018-09-20T23:54:08.267Z,98607.76
2018-09-20T23:56:36.708Z,98604.59
2018-09-20T23:59:07.150Z,98606.11
